EGOV

Anglesey Airport

Angelsey, United Kingdom
METAR EGOV 211250Z AUTO 32007KT 9999 BKN023/// 16/11 Q1016
Observed Flight Rules
Jul-21 @ 12:50 UTC (an hour ago) Marginal Visual Flight Rules
Wind Visibility Clouds
320° at 7 knots 10,000+ meters
  • Broken at 2,300' AGL
Temperatures Readings
Current 16°C / 61°F
Dewpoint 11°C / 52°F
Humidity 72%
Altimeter 30" Hg
Pressure 1016 hPa
Elevation 11
METAR EGOV 211250Z AUTO 32007KT 9999 BKN023/// 16/11 Q1016
Observed Flight Rules
Jul-21 @ 12:50 UTC
(an hour ago)
MVFR
Wind Visibility
320° at 7 knots 10,000+ meters
Clouds
  • Broken at 2,300' AGL
Temperature Dewpoint
16°C / 61°F 11°C / 52°F
Humidity Altimeter Pressure
72% 30" Hg 1016 hPa